Time;durP1;ratioP1;P1;durP2;ratioP2;P2;SDS_P1;SDS_P2;PMS_P1;PMS_P2;Temp;Humidity;BMP_temperature;BMP_pressure;BME280_temperature;BME280_humidity;BME280_pressure;Samples;Min_cycle;Max_cycle;Signal;HPM_P1;HPM_P2
2021/04/01 00:02:09;;;;;;;;;15.25;15.25;;;;;;;;5081411;28;11142;-78
2021/04/01 00:04:36;;;;;;;;;22.00;19.25;;;;;;;;5082832;28;11190;-79
2021/04/01 00:07:03;;;;;;;;;20.75;17.75;;;;;;;;5083372;28;11121;-79
2021/04/01 00:09:30;;;;;;;;;15.50;14.00;;;;;;;;5082492;28;11147;-79
2021/04/01 00:11:57;;;;;;;;;19.75;16.50;;;;;;;;5082474;28;11112;-80
2021/04/01 00:14:25;;;;;;;;;22.25;20.00;;;;;;;;5082597;28;11046;-80
2021/04/01 00:16:52;;;;;;;;;18.75;18.25;;;;;;;;5083018;28;10981;-80
2021/04/01 00:19:19;;;;;;;;;26.00;22.00;;;;;;;;5080458;28;11069;-81
2021/04/01 00:21:45;;;;;;;;;21.50;17.75;;;;;;;;5082672;28;11869;-81
2021/04/01 00:24:12;;;;;;;;;20.50;19.25;;;;;;;;5077029;28;11192;-81
2021/04/01 00:26:40;;;;;;;;;22.00;18.25;;;;;;;;5083385;28;11242;-80
2021/04/01 00:29:07;;;;;;;;;20.25;18.50;;;;;;;;5081983;28;11457;-83
2021/04/01 00:31:34;;;;;;;;;22.00;19.50;;;;;;;;5081849;27;11226;-80
2021/04/01 00:34:01;;;;;;;;;19.50;17.75;;;;;;;;5083312;28;11249;-81
2021/04/01 00:36:28;;;;;;;;;18.00;18.00;;;;;;;;5078542;28;11379;-81
2021/04/01 00:38:55;;;;;;;;;23.25;19.75;;;;;;;;5083923;28;11311;-83
2021/04/01 00:41:22;;;;;;;;;21.50;18.25;;;;;;;;5083455;28;12042;-82
2021/04/01 00:43:50;;;;;;;;;17.50;17.50;;;;;;;;5083307;28;11533;-87
2021/04/01 00:46:17;;;;;;;;;21.00;18.25;;;;;;;;5083499;28;11567;-85
2021/04/01 00:48:44;;;;;;;;;15.75;15.75;;;;;;;;5083080;28;11508;-86
2021/04/01 00:51:11;;;;;;;;;17.50;17.50;;;;;;;;5082597;28;11254;-84
2021/04/01 00:53:38;;;;;;;;;19.75;19.50;;;;;;;;5082480;28;11173;-83
2021/04/01 00:58:47;;;;;;;;;21.50;18.00;;;;;;;;5046756;28;12346;-80
2021/04/01 01:01:34;;;;;;;;;21.50;20.25;;;;;;;;5082137;27;11231;-79
2021/04/01 01:04:01;;;;;;;;;22.75;19.00;;;;;;;;5080306;28;11290;-80
2021/04/01 01:06:27;;;;;;;;;20.25;19.75;;;;;;;;5083012;28;11551;-80
2021/04/01 01:08:54;;;;;;;;;27.50;23.75;;;;;;;;5085775;28;11490;-79
2021/04/01 01:11:21;;;;;;;;;23.00;20.75;;;;;;;;5089205;28;11517;-80
2021/04/01 01:13:48;;;;;;;;;21.00;21.00;;;;;;;;5081906;28;11616;-80
2021/04/01 01:16:16;;;;;;;;;20.25;20.25;;;;;;;;5071369;28;11490;-83
2021/04/01 01:18:44;;;;;;;;;21.50;17.50;;;;;;;;5083108;28;11605;-83
2021/04/01 01:21:11;;;;;;;;;22.50;21.00;;;;;;;;5079936;28;11640;-82
2021/04/01 01:23:41;;;;;;;;;22.75;22.75;;;;;;;;5080789;28;11498;-89
2021/04/01 01:26:08;;;;;;;;;23.25;20.00;;;;;;;;5081400;28;11633;-83
2021/04/01 01:28:36;;;;;;;;;17.25;16.75;;;;;;;;5080979;28;11494;-83
2021/04/01 01:31:03;;;;;;;;;22.25;18.00;;;;;;;;5081604;28;11555;-81
2021/04/01 01:33:39;;;;;;;;;17.50;17.50;;;;;;;;5079093;28;11609;-85
2021/04/01 01:36:06;;;;;;;;;23.00;19.75;;;;;;;;5083641;28;12434;-82
2021/04/01 01:38:40;;;;;;;;;24.50;19.00;;;;;;;;5080295;28;11510;-78
2021/04/01 01:41:08;;;;;;;;;18.75;17.00;;;;;;;;5081574;28;12143;-82
2021/04/01 01:43:36;;;;;;;;;20.25;19.25;;;;;;;;5077226;28;11658;-81
2021/04/01 01:46:03;;;;;;;;;21.75;19.75;;;;;;;;5082099;28;12289;-81
2021/04/01 01:48:30;;;;;;;;;18.00;18.00;;;;;;;;5081206;28;11503;-81
2021/04/01 01:50:59;;;;;;;;;24.75;19.00;;;;;;;;5081248;28;11469;-81
2021/04/01 01:53:26;;;;;;;;;25.75;20.75;;;;;;;;5082126;28;11541;-81
2021/04/01 01:55:53;;;;;;;;;20.00;17.50;;;;;;;;5079036;28;11499;-79
2021/04/01 01:58:22;;;;;;;;;23.75;21.00;;;;;;;;5080274;28;11516;-82
2021/04/01 02:00:51;;;;;;;;;22.75;22.75;;;;;;;;5082503;28;11446;-87
2021/04/01 02:03:18;;;;;;;;;23.75;22.25;;;;;;;;5082196;28;11526;-81
2021/04/01 02:05:45;;;;;;;;;24.75;24.00;;;;;;;;5079317;28;11494;-83
2021/04/01 02:08:13;;;;;;;;;23.25;22.75;;;;;;;;5082185;28;11510;-84
2021/04/01 02:10:42;;;;;;;;;27.00;22.00;;;;;;;;5080660;28;11509;-83
2021/04/01 02:13:10;;;;;;;;;25.75;22.00;;;;;;;;5080955;28;11507;-82
2021/04/01 02:15:40;;;;;;;;;26.25;22.75;;;;;;;;5081622;28;11511;-82
2021/04/01 02:18:08;;;;;;;;;24.25;20.00;;;;;;;;5079876;28;11498;-82
2021/04/01 02:20:41;;;;;;;;;25.75;21.50;;;;;;;;5081631;28;11681;-81
2021/04/01 02:23:10;;;;;;;;;19.75;17.75;;;;;;;;5080827;28;11491;-82
2021/04/01 02:25:37;;;;;;;;;20.00;17.75;;;;;;;;5080644;28;12454;-81
2021/04/01 02:28:04;;;;;;;;;21.75;21.75;;;;;;;;5079878;28;11505;-80
2021/04/01 02:30:31;;;;;;;;;17.25;17.25;;;;;;;;5079732;27;11509;-82
2021/04/01 02:32:59;;;;;;;;;20.00;17.50;;;;;;;;5081874;28;11474;-81
2021/04/01 02:35:26;;;;;;;;;22.50;22.50;;;;;;;;5071691;28;11605;-80
2021/04/01 02:37:53;;;;;;;;;25.25;25.25;;;;;;;;5083633;28;11558;-80
2021/04/01 02:40:20;;;;;;;;;21.00;21.00;;;;;;;;5079477;28;11491;-83
2021/04/01 02:42:47;;;;;;;;;22.00;22.00;;;;;;;;5083014;28;12259;-83
2021/04/01 02:45:15;;;;;;;;;22.25;20.75;;;;;;;;5090326;28;11584;-82
2021/04/01 02:47:42;;;;;;;;;18.75;17.50;;;;;;;;5081344;28;11593;-82
2021/04/01 02:50:12;;;;;;;;;20.50;18.00;;;;;;;;5081416;28;11488;-85
2021/04/01 02:52:39;;;;;;;;;22.50;22.00;;;;;;;;5079835;28;11502;-84
2021/04/01 02:55:08;;;;;;;;;19.50;17.50;;;;;;;;5082181;28;11541;-84
2021/04/01 02:57:35;;;;;;;;;29.00;22.50;;;;;;;;5083475;28;11482;-82
2021/04/01 03:00:05;;;;;;;;;22.50;21.00;;;;;;;;5091391;28;11625;-82
2021/04/01 03:02:32;;;;;;;;;23.50;22.00;;;;;;;;5079589;28;11458;-81
2021/04/01 03:05:03;;;;;;;;;26.50;24.50;;;;;;;;5080889;28;11650;-83
2021/04/01 03:07:31;;;;;;;;;23.00;20.75;;;;;;;;5080614;28;11522;-82
2021/04/01 03:09:58;;;;;;;;;23.75;22.25;;;;;;;;5088668;28;11503;-82
2021/04/01 03:12:25;;;;;;;;;22.25;22.25;;;;;;;;5084503;28;11577;-82
2021/04/01 03:14:52;;;;;;;;;24.75;21.25;;;;;;;;5084441;28;11619;-82
2021/04/01 03:17:19;;;;;;;;;22.75;20.50;;;;;;;;5080844;28;11500;-81
2021/04/01 03:19:46;;;;;;;;;18.75;18.75;;;;;;;;5079765;28;11616;-81
2021/04/01 03:22:13;;;;;;;;;23.50;21.75;;;;;;;;5091110;28;11582;-82
2021/04/01 03:24:41;;;;;;;;;23.00;23.00;;;;;;;;5079746;28;11483;-83
2021/04/01 03:27:08;;;;;;;;;24.00;23.75;;;;;;;;5081586;28;12294;-83
2021/04/01 03:29:35;;;;;;;;;24.00;21.50;;;;;;;;5078834;28;11605;-84
2021/04/01 03:32:02;;;;;;;;;22.00;20.75;;;;;;;;5079058;27;11676;-83
2021/04/01 03:34:29;;;;;;;;;26.25;21.75;;;;;;;;5085537;28;11499;-83
2021/04/01 03:36:56;;;;;;;;;22.50;20.75;;;;;;;;5080805;28;11496;-82
2021/04/01 03:39:23;;;;;;;;;20.00;20.00;;;;;;;;5081715;28;11464;-83
2021/04/01 03:41:51;;;;;;;;;26.00;24.75;;;;;;;;5079684;28;11480;-83
2021/04/01 03:44:18;;;;;;;;;24.75;22.00;;;;;;;;5082214;28;11521;-83
2021/04/01 03:46:45;;;;;;;;;34.75;25.50;;;;;;;;5080800;28;11492;-80
2021/04/01 03:49:12;;;;;;;;;17.00;15.50;;;;;;;;5081159;28;12275;-80
2021/04/01 03:51:39;;;;;;;;;21.25;21.00;;;;;;;;5083639;28;11483;-80
2021/04/01 03:54:06;;;;;;;;;25.50;24.00;;;;;;;;5082455;28;12365;-80
2021/04/01 03:56:33;;;;;;;;;22.75;21.50;;;;;;;;5083177;28;11520;-80
2021/04/01 03:59:04;;;;;;;;;20.75;20.75;;;;;;;;5082579;28;11507;-81
2021/04/01 04:04:51;;;;;;;;;29.50;24.75;;;;;;;;5083339;28;11544;-78
2021/04/01 04:10:23;;;;;;;;;25.00;22.25;;;;;;;;5082877;28;12749;-82
2021/04/01 04:12:57;;;;;;;;;26.00;23.25;;;;;;;;5081884;28;11564;-77
2021/04/01 04:15:25;;;;;;;;;21.00;21.00;;;;;;;;5082187;28;11653;-78
2021/04/01 04:17:53;;;;;;;;;34.25;24.50;;;;;;;;5073143;28;11493;-79
2021/04/01 04:20:20;;;;;;;;;28.50;27.00;;;;;;;;5086175;28;11498;-78
2021/04/01 04:22:50;;;;;;;;;31.75;27.75;;;;;;;;5081699;28;11559;-79
2021/04/01 04:25:18;;;;;;;;;31.00;30.25;;;;;;;;5081949;28;11543;-76
2021/04/01 04:28:00;;;;;;;;;28.75;26.75;;;;;;;;5071974;28;11568;-79
2021/04/01 04:30:28;;;;;;;;;25.50;25.00;;;;;;;;5082119;28;11435;-76
2021/04/01 04:32:56;;;;;;;;;32.00;29.75;;;;;;;;5082918;28;11618;-77
2021/04/01 04:35:23;;;;;;;;;33.75;32.75;;;;;;;;5083050;28;11539;-79
2021/04/01 04:37:50;;;;;;;;;30.25;25.75;;;;;;;;5082905;28;11567;-78
2021/04/01 04:40:18;;;;;;;;;23.75;23.75;;;;;;;;5082980;28;11572;-79
2021/04/01 04:42:44;;;;;;;;;28.25;24.00;;;;;;;;5082479;28;11594;-78
2021/04/01 04:45:12;;;;;;;;;25.50;21.75;;;;;;;;5082655;28;11588;-80
2021/04/01 04:47:40;;;;;;;;;26.50;26.25;;;;;;;;5082640;28;11574;-78
2021/04/01 04:50:08;;;;;;;;;37.25;29.00;;;;;;;;5081915;28;11574;-76
2021/04/01 04:52:36;;;;;;;;;34.75;24.25;;;;;;;;5082975;28;11551;-81
2021/04/01 04:55:08;;;;;;;;;31.50;29.25;;;;;;;;5082171;28;12317;-79
2021/04/01 04:57:44;;;;;;;;;33.50;28.75;;;;;;;;5082280;28;11558;-80
2021/04/01 05:00:42;;;;;;;;;33.25;29.75;;;;;;;;5077203;27;12459;-83
2021/04/01 05:05:55;;;;;;;;;28.25;28.25;;;;;;;;5088814;28;11535;-89
2021/04/01 05:08:21;;;;;;;;;31.75;29.00;;;;;;;;5085624;28;11684;-86
2021/04/01 05:10:49;;;;;;;;;31.75;30.25;;;;;;;;5085561;28;11603;-83
2021/04/01 05:13:16;;;;;;;;;36.75;33.00;;;;;;;;5082975;28;11573;-80
2021/04/01 05:15:47;;;;;;;;;26.75;26.75;;;;;;;;5083005;28;11579;-83
2021/04/01 05:18:21;;;;;;;;;35.25;30.25;;;;;;;;5082085;28;12161;-83
2021/04/01 05:20:49;;;;;;;;;42.00;38.25;;;;;;;;5081502;28;11565;-82
2021/04/01 05:23:26;;;;;;;;;37.50;33.00;;;;;;;;5086209;28;12352;-78
2021/04/01 05:26:01;;;;;;;;;36.00;32.00;;;;;;;;5080903;28;11568;-81
2021/04/01 05:28:32;;;;;;;;;35.75;31.75;;;;;;;;5054827;28;11684;-83
2021/04/01 05:31:02;;;;;;;;;24.50;23.75;;;;;;;;5081227;28;11498;-83
2021/04/01 05:33:33;;;;;;;;;29.00;27.50;;;;;;;;5082990;28;11559;-81
2021/04/01 05:36:02;;;;;;;;;28.00;26.00;;;;;;;;5078731;28;11636;-81
2021/04/01 05:38:30;;;;;;;;;27.75;25.25;;;;;;;;5082594;28;11673;-80
2021/04/01 05:40:57;;;;;;;;;26.00;24.00;;;;;;;;5079365;28;12427;-80
2021/04/01 05:43:26;;;;;;;;;25.75;23.25;;;;;;;;5080684;28;11579;-80
2021/04/01 05:45:56;;;;;;;;;30.00;27.00;;;;;;;;5081859;28;11570;-80
2021/04/01 05:48:28;;;;;;;;;23.50;21.25;;;;;;;;5080033;28;11574;-82
2021/04/01 06:00:12;;;;;;;;;21.75;18.25;;;;;;;;5047271;28;11578;-79
2021/04/01 06:02:49;;;;;;;;;27.25;24.25;;;;;;;;5065564;28;11567;-79
2021/04/01 06:05:23;;;;;;;;;27.50;24.75;;;;;;;;5061007;28;11673;-79
2021/04/01 06:08:05;;;;;;;;;26.25;23.25;;;;;;;;5062133;28;11698;-80
2021/04/01 06:10:34;;;;;;;;;25.00;24.25;;;;;;;;5059957;28;12497;-81
2021/04/01 06:13:03;;;;;;;;;23.00;19.75;;;;;;;;5061853;28;11650;-81
2021/04/01 06:15:30;;;;;;;;;29.00;28.00;;;;;;;;5060721;28;11666;-81
2021/04/01 06:18:07;;;;;;;;;23.25;23.25;;;;;;;;5073203;28;11636;-80
2021/04/01 06:20:43;;;;;;;;;20.75;19.50;;;;;;;;5061442;28;11699;-81
2021/04/01 06:23:14;;;;;;;;;21.00;19.00;;;;;;;;5057930;28;11480;-82
2021/04/01 06:25:41;;;;;;;;;21.75;21.75;;;;;;;;5054024;28;11525;-81
2021/04/01 06:28:13;;;;;;;;;32.75;26.00;;;;;;;;5074063;28;11547;-85
2021/04/01 06:30:47;;;;;;;;;28.50;25.75;;;;;;;;5065922;28;12249;-83
2021/04/01 06:33:16;;;;;;;;;31.75;28.00;;;;;;;;5081146;28;11471;-82
2021/04/01 06:35:47;;;;;;;;;26.00;26.00;;;;;;;;5081203;28;11487;-81
2021/04/01 06:38:27;;;;;;;;;34.75;33.00;;;;;;;;5080125;28;11508;-85
2021/04/01 06:40:59;;;;;;;;;38.25;35.75;;;;;;;;5073903;28;11624;-75
2021/04/01 06:43:50;;;;;;;;;43.50;37.75;;;;;;;;5079254;28;11501;-71
2021/04/01 06:46:18;;;;;;;;;41.75;36.75;;;;;;;;5070140;28;13085;-72
2021/04/01 06:51:42;;;;;;;;;42.75;38.50;;;;;;;;5078741;28;11662;-71
2021/04/01 06:54:13;;;;;;;;;41.00;37.75;;;;;;;;5074767;28;11495;-72
2021/04/01 06:56:48;;;;;;;;;32.75;32.00;;;;;;;;5082788;28;11508;-70
2021/04/01 06:59:27;;;;;;;;;34.00;33.75;;;;;;;;5076113;28;11501;-72
2021/04/01 07:02:06;;;;;;;;;46.00;40.25;;;;;;;;5073239;28;12338;-71
2021/04/01 07:04:35;;;;;;;;;44.50;37.50;;;;;;;;5076998;28;11478;-71
2021/04/01 07:07:07;;;;;;;;;46.00;39.50;;;;;;;;5077558;28;11526;-72
2021/04/01 07:09:45;;;;;;;;;48.50;40.00;;;;;;;;5077134;28;11616;-70
2021/04/01 07:12:15;;;;;;;;;39.75;36.50;;;;;;;;5080548;28;11494;-72
2021/04/01 07:14:44;;;;;;;;;52.25;41.25;;;;;;;;5076098;28;11520;-71
2021/04/01 07:17:16;;;;;;;;;39.25;36.75;;;;;;;;5074825;28;11483;-71
2021/04/01 07:19:53;;;;;;;;;42.50;37.25;;;;;;;;5079455;28;11495;-71
2021/04/01 07:31:32;;;;;;;;;42.25;39.00;;;;;;;;5082756;28;11144;-75
2021/04/01 07:47:39;;;;;;;;;44.75;38.50;;;;;;;;5046937;28;10872;-72
2021/04/01 07:50:10;;;;;;;;;41.50;37.50;;;;;;;;5099277;28;10816;-72
2021/04/01 07:52:38;;;;;;;;;38.75;35.00;;;;;;;;5096712;28;11867;-72
2021/04/01 07:55:12;;;;;;;;;32.25;32.25;;;;;;;;5080117;28;10365;-72
2021/04/01 08:00:46;;;;;;;;;39.75;35.00;;;;;;;;5087898;27;10498;-72
2021/04/01 08:06:08;;;;;;;;;43.50;37.25;;;;;;;;5082501;28;10378;-72
2021/04/01 08:08:37;;;;;;;;;43.00;34.25;;;;;;;;5082994;28;10454;-72
2021/04/01 08:11:06;;;;;;;;;38.75;37.00;;;;;;;;5087033;28;10309;-71
2021/04/01 08:13:38;;;;;;;;;38.75;34.25;;;;;;;;5081757;28;10362;-72
2021/04/01 08:16:09;;;;;;;;;44.25;37.00;;;;;;;;5080769;28;10037;-72
2021/04/01 08:18:38;;;;;;;;;38.25;35.00;;;;;;;;5083143;28;10270;-72
2021/04/01 08:21:07;;;;;;;;;40.50;35.75;;;;;;;;5081691;28;10230;-72
2021/04/01 08:23:35;;;;;;;;;37.75;33.00;;;;;;;;5081741;28;10283;-73
2021/04/01 08:26:19;;;;;;;;;49.50;37.75;;;;;;;;5074057;28;9899;-73
2021/04/01 08:29:05;;;;;;;;;34.75;30.25;;;;;;;;5081313;28;10050;-71
2021/04/01 08:34:18;;;;;;;;;48.00;39.75;;;;;;;;5089291;28;9818;-70
2021/04/01 08:36:47;;;;;;;;;45.00;40.00;;;;;;;;5074430;28;9904;-70
2021/04/01 08:39:15;;;;;;;;;40.75;37.50;;;;;;;;5081159;28;9870;-72
2021/04/01 08:42:07;;;;;;;;;40.75;36.75;;;;;;;;5080661;28;9904;-73
2021/04/01 08:45:10;;;;;;;;;40.00;37.25;;;;;;;;5073510;28;9649;-73
2021/04/01 08:47:45;;;;;;;;;44.00;38.25;;;;;;;;5074162;28;9658;-73
2021/04/01 08:50:26;;;;;;;;;43.50;36.75;;;;;;;;5082438;28;9547;-73
2021/04/01 08:53:25;;;;;;;;;45.67;39.00;;;;;;;;5083489;28;9466;-73
2021/04/01 08:55:58;;;;;;;;;45.67;37.00;;;;;;;;5076954;28;9409;-73
2021/04/01 08:58:32;;;;;;;;;49.00;40.33;;;;;;;;5083706;28;9448;-73
2021/04/01 09:01:14;;;;;;;;;42.67;36.67;;;;;;;;5087942;27;9344;-73
2021/04/01 09:03:43;;;;;;;;;48.00;38.75;;;;;;;;5076195;28;9344;-73
2021/04/01 09:06:11;;;;;;;;;43.00;36.33;;;;;;;;5082815;28;9555;-72
2021/04/01 09:08:45;;;;;;;;;50.67;41.00;;;;;;;;5082409;28;9413;-72
2021/04/01 09:11:12;;;;;;;;;47.00;38.33;;;;;;;;5083160;28;9599;-73
2021/04/01 09:13:45;;;;;;;;;51.67;42.33;;;;;;;;5081672;28;9274;-73
2021/04/01 09:16:21;;;;;;;;;45.00;39.33;;;;;;;;5082252;28;9342;-73
2021/04/01 09:18:49;;;;;;;;;49.00;38.67;;;;;;;;5082995;28;9367;-73
2021/04/01 09:21:16;;;;;;;;;43.67;37.67;;;;;;;;5081694;28;9087;-73
2021/04/01 09:23:45;;;;;;;;;43.67;37.00;;;;;;;;5082560;28;8993;-73
2021/04/01 09:26:13;;;;;;;;;33.50;32.00;;;;;;;;5081141;28;9014;-73
2021/04/01 09:28:42;;;;;;;;;43.00;35.50;;;;;;;;5082294;28;8854;-73
2021/04/01 09:31:11;;;;;;;;;49.00;39.75;;;;;;;;5079346;28;8904;-74
2021/04/01 09:33:40;;;;;;;;;49.00;41.00;;;;;;;;5082180;28;8877;-73
2021/04/01 09:36:09;;;;;;;;;32.50;30.25;;;;;;;;5082513;28;8864;-74
2021/04/01 09:38:38;;;;;;;;;28.33;21.33;;;;;;;;5081604;28;8976;-73
2021/04/01 09:41:05;;;;;;;;;27.00;24.50;;;;;;;;5083253;28;8861;-74
2021/04/01 09:43:31;;;;;;;;;31.00;27.50;;;;;;;;5080793;28;8946;-73
2021/04/01 09:46:09;;;;;;;;;30.50;25.50;;;;;;;;5082716;28;8893;-73
2021/04/01 09:48:43;;;;;;;;;28.25;26.25;;;;;;;;5082006;28;8973;-73
2021/04/01 09:51:18;;;;;;;;;32.75;28.75;;;;;;;;5081421;28;8893;-73
2021/04/01 09:53:54;;;;;;;;;29.50;29.25;;;;;;;;5084811;28;8847;-74
2021/04/01 09:56:27;;;;;;;;;24.75;21.50;;;;;;;;5075541;28;8910;-74
2021/04/01 09:58:55;;;;;;;;;33.25;28.75;;;;;;;;5081393;28;8878;-74
2021/04/01 10:01:27;;;;;;;;;34.50;31.50;;;;;;;;5077523;28;8790;-74
2021/04/01 10:03:58;;;;;;;;;30.25;24.50;;;;;;;;5082023;28;8958;-74
2021/04/01 10:06:35;;;;;;;;;34.00;30.00;;;;;;;;5081727;28;9742;-74
2021/04/01 10:09:13;;;;;;;;;28.25;27.25;;;;;;;;5080842;28;8996;-74
2021/04/01 10:11:45;;;;;;;;;28.80;28.80;;;;;;;;5079473;28;8857;-75
2021/04/01 10:14:14;;;;;;;;;29.00;27.25;;;;;;;;5079644;28;9615;-75
2021/04/01 10:16:53;;;;;;;;;33.20;29.20;;;;;;;;5078862;28;8853;-74
2021/04/01 10:19:23;;;;;;;;;31.60;28.00;;;;;;;;5080893;28;8898;-74
2021/04/01 10:21:51;;;;;;;;;34.00;32.00;;;;;;;;5082366;28;8950;-73
2021/04/01 10:24:26;;;;;;;;;30.00;29.40;;;;;;;;5080990;28;8858;-74
2021/04/01 10:27:01;;;;;;;;;38.60;33.40;;;;;;;;5079660;28;8866;-75
2021/04/01 10:29:39;;;;;;;;;32.20;29.00;;;;;;;;5081497;28;8864;-75
2021/04/01 10:32:08;;;;;;;;;41.00;34.60;;;;;;;;5080257;28;8810;-76
2021/04/01 10:34:39;;;;;;;;;35.00;31.00;;;;;;;;5080540;28;8929;-75
2021/04/01 10:37:08;;;;;;;;;38.40;32.60;;;;;;;;5078892;28;8865;-72
2021/04/01 10:39:36;;;;;;;;;28.40;25.60;;;;;;;;5079532;28;8861;-74
2021/04/01 10:42:05;;;;;;;;;27.80;26.40;;;;;;;;5077539;28;8880;-75
2021/04/01 10:44:33;;;;;;;;;27.20;25.00;;;;;;;;5076392;28;8862;-75
2021/04/01 10:47:04;;;;;;;;;23.80;21.00;;;;;;;;5078495;28;8918;-74
2021/04/01 10:49:32;;;;;;;;;30.80;23.80;;;;;;;;5078731;28;9655;-75
2021/04/01 10:52:01;;;;;;;;;31.80;27.60;;;;;;;;5078088;28;8885;-73
2021/04/01 10:54:36;;;;;;;;;27.80;26.60;;;;;;;;5079566;28;8899;-75
2021/04/01 10:57:03;;;;;;;;;27.40;25.80;;;;;;;;5080525;28;8896;-75
2021/04/01 10:59:37;;;;;;;;;22.00;19.80;;;;;;;;5083064;28;8846;-75
2021/04/01 11:02:10;;;;;;;;;30.00;27.00;;;;;;;;5082281;27;8824;-75
2021/04/01 11:04:40;;;;;;;;;28.20;25.20;;;;;;;;5078897;28;8874;-75
2021/04/01 11:07:09;;;;;;;;;29.00;27.20;;;;;;;;5083514;28;9644;-75
2021/04/01 11:09:39;;;;;;;;;28.20;27.00;;;;;;;;5084713;28;8878;-75
2021/04/01 11:12:17;;;;;;;;;26.20;22.60;;;;;;;;5082538;28;8866;-76
2021/04/01 11:14:47;;;;;;;;;30.00;25.00;;;;;;;;5081413;28;8865;-76
2021/04/01 11:17:16;;;;;;;;;28.60;26.00;;;;;;;;5083985;28;8865;-75
2021/04/01 11:19:45;;;;;;;;;24.80;21.20;;;;;;;;5083194;28;8888;-73
2021/04/01 11:22:15;;;;;;;;;29.00;23.20;;;;;;;;5083596;28;8886;-73
2021/04/01 11:24:43;;;;;;;;;22.20;19.60;;;;;;;;5081617;28;8865;-74
2021/04/01 11:27:12;;;;;;;;;22.40;22.00;;;;;;;;5081857;28;8873;-76
2021/04/01 11:29:40;;;;;;;;;27.00;21.40;;;;;;;;5083561;28;8962;-73
2021/04/01 11:32:16;;;;;;;;;21.80;19.00;;;;;;;;5078187;27;8852;-74
2021/04/01 11:34:43;;;;;;;;;24.00;20.40;;;;;;;;5078587;28;8885;-75
2021/04/01 11:37:12;;;;;;;;;25.80;25.00;;;;;;;;5078332;28;8931;-75
2021/04/01 11:39:41;;;;;;;;;17.40;16.40;;;;;;;;5081693;28;8877;-72
2021/04/01 11:42:11;;;;;;;;;21.00;20.40;;;;;;;;5081190;28;8865;-74
2021/04/01 11:44:39;;;;;;;;;29.00;24.40;;;;;;;;5081610;28;8880;-74
2021/04/01 11:47:19;;;;;;;;;26.40;23.60;;;;;;;;5083195;28;8830;-74
2021/04/01 11:49:47;;;;;;;;;26.60;24.20;;;;;;;;5083145;28;8873;-74
2021/04/01 11:52:15;;;;;;;;;22.60;21.00;;;;;;;;5083049;28;9731;-75
2021/04/01 11:54:44;;;;;;;;;21.80;19.80;;;;;;;;5082309;28;8881;-75
2021/04/01 11:57:18;;;;;;;;;21.20;19.00;;;;;;;;5082210;28;9273;-74
2021/04/01 11:59:54;;;;;;;;;21.00;20.40;;;;;;;;5082915;28;8876;-74
2021/04/01 12:02:23;;;;;;;;;21.60;20.80;;;;;;;;5080800;27;8832;-74
2021/04/01 12:04:53;;;;;;;;;17.20;17.20;;;;;;;;5082281;28;8938;-74
2021/04/01 12:07:20;;;;;;;;;19.80;19.60;;;;;;;;5082703;28;8861;-74
2021/04/01 12:09:50;;;;;;;;;19.80;19.40;;;;;;;;5083863;28;8966;-74
2021/04/01 12:12:27;;;;;;;;;22.00;18.20;;;;;;;;5082723;28;9630;-74
2021/04/01 12:14:54;;;;;;;;;24.60;21.20;;;;;;;;5082446;28;8872;-74
2021/04/01 12:17:30;;;;;;;;;21.20;19.40;;;;;;;;5093413;28;8842;-73
2021/04/01 12:19:58;;;;;;;;;27.60;23.20;;;;;;;;5082069;28;8966;-73
2021/04/01 12:22:31;;;;;;;;;24.60;20.40;;;;;;;;5084200;27;8881;-74
2021/04/01 12:24:59;;;;;;;;;29.80;24.60;;;;;;;;5081660;28;8862;-73
2021/04/01 12:27:28;;;;;;;;;25.00;22.20;;;;;;;;5085086;28;8869;-73
2021/04/01 12:29:56;;;;;;;;;20.80;16.60;;;;;;;;5081777;28;8858;-74
2021/04/01 12:32:30;;;;;;;;;23.20;21.60;;;;;;;;5080719;27;8810;-73
2021/04/01 12:35:09;;;;;;;;;28.20;27.00;;;;;;;;5083636;28;8853;-74
2021/04/01 12:37:37;;;;;;;;;27.60;24.00;;;;;;;;5079764;28;8984;-74
2021/04/01 12:40:14;;;;;;;;;29.60;27.60;;;;;;;;5083729;28;8936;-73
2021/04/01 12:42:41;;;;;;;;;27.60;25.60;;;;;;;;5082101;28;8867;-74
2021/04/01 12:45:26;;;;;;;;;33.00;27.60;;;;;;;;5071047;28;8869;-74
2021/04/01 12:48:06;;;;;;;;;23.20;21.80;;;;;;;;5065587;28;8884;-74
2021/04/01 12:50:34;;;;;;;;;30.20;27.80;;;;;;;;5068336;28;9796;-74
2021/04/01 12:53:02;;;;;;;;;25.80;24.80;;;;;;;;5066700;28;8877;-74
2021/04/01 12:55:47;;;;;;;;;32.40;24.20;;;;;;;;5061953;28;8860;-74
2021/04/01 12:58:31;;;;;;;;;33.60;24.80;;;;;;;;5060723;28;8879;-74
2021/04/01 13:01:02;;;;;;;;;31.20;28.20;;;;;;;;5062946;28;8844;-74
2021/04/01 13:03:30;;;;;;;;;30.00;25.20;;;;;;;;5064663;28;8872;-74
2021/04/01 13:06:00;;;;;;;;;26.60;26.60;;;;;;;;5064799;28;8865;-75
2021/04/01 13:11:28;;;;;;;;;25.40;22.00;;;;;;;;5137238;27;13540;-73
2021/04/01 13:13:55;;;;;;;;;29.00;28.60;;;;;;;;5112422;27;8854;-73
2021/04/01 13:16:22;;;;;;;;;29.40;28.20;;;;;;;;5101177;27;8887;-73
2021/04/01 13:18:49;;;;;;;;;25.20;24.00;;;;;;;;5102391;27;8862;-73
2021/04/01 13:21:34;;;;;;;;;27.00;23.80;;;;;;;;5104397;27;8847;-74
2021/04/01 13:24:12;;;;;;;;;31.60;27.40;;;;;;;;5108341;27;8943;-75
2021/04/01 13:26:42;;;;;;;;;33.60;30.80;;;;;;;;5101170;27;8850;-76
2021/04/01 13:29:10;;;;;;;;;29.80;29.00;;;;;;;;5099975;27;8973;-76
2021/04/01 13:31:51;;;;;;;;;31.40;29.00;;;;;;;;5088616;27;8955;-75
2021/04/01 13:34:21;;;;;;;;;26.60;26.00;;;;;;;;5081012;28;8864;-75
2021/04/01 13:36:55;;;;;;;;;32.20;29.00;;;;;;;;5084554;28;8870;-76
2021/04/01 13:39:29;;;;;;;;;37.80;32.40;;;;;;;;5076524;28;9791;-74
2021/04/01 13:44:43;;;;;;;;;29.20;26.20;;;;;;;;5079271;28;8853;-74
2021/04/01 13:47:11;;;;;;;;;33.40;29.00;;;;;;;;5077198;28;8872;-77
2021/04/01 13:49:39;;;;;;;;;27.20;25.80;;;;;;;;5080269;28;8860;-75
2021/04/01 13:52:21;;;;;;;;;30.80;28.80;;;;;;;;5076765;28;8899;-76
2021/04/01 13:55:02;;;;;;;;;26.20;24.80;;;;;;;;5081717;28;8866;-75
2021/04/01 13:57:57;;;;;;;;;33.60;30.20;;;;;;;;5079621;28;8860;-74
2021/04/01 14:00:29;;;;;;;;;35.40;31.00;;;;;;;;5080507;27;9601;-76
2021/04/01 14:11:32;;;;;;;;;39.60;33.00;;;;;;;;5021503;28;9045;-74
2021/04/01 14:14:00;;;;;;;;;40.00;34.40;;;;;;;;5061969;28;9789;-75
2021/04/01 14:16:28;;;;;;;;;40.20;34.60;;;;;;;;5081077;28;8854;-74
2021/04/01 14:18:55;;;;;;;;;46.60;37.40;;;;;;;;5081755;28;8884;-76
2021/04/01 14:21:24;;;;;;;;;44.20;35.00;;;;;;;;5053875;28;8848;-76
2021/04/01 14:23:51;;;;;;;;;37.40;31.40;;;;;;;;5051293;28;8907;-79
2021/04/01 14:26:23;;;;;;;;;46.60;36.80;;;;;;;;5068708;28;9560;-74
2021/04/01 14:28:50;;;;;;;;;44.80;38.40;;;;;;;;5079656;28;8860;-74
2021/04/01 14:31:19;;;;;;;;;42.60;35.00;;;;;;;;5081770;27;8806;-74
2021/04/01 14:33:47;;;;;;;;;45.80;34.40;;;;;;;;5083896;28;8905;-75
2021/04/01 14:36:15;;;;;;;;;44.40;34.40;;;;;;;;5064706;28;8953;-73
2021/04/01 14:38:42;;;;;;;;;47.80;39.40;;;;;;;;5072736;28;8975;-76
2021/04/01 14:41:12;;;;;;;;;47.00;38.60;;;;;;;;5063376;28;8972;-73
2021/04/01 14:43:48;;;;;;;;;45.80;36.20;;;;;;;;5079726;28;8947;-75
2021/04/01 14:46:15;;;;;;;;;49.00;39.40;;;;;;;;5078141;28;8853;-74
2021/04/01 14:48:43;;;;;;;;;49.00;39.80;;;;;;;;5081350;28;8992;-74
2021/04/01 14:51:11;;;;;;;;;48.00;39.20;;;;;;;;5083064;28;8870;-74
2021/04/01 14:53:44;;;;;;;;;54.60;42.00;;;;;;;;5082557;28;8882;-73
2021/04/01 14:56:13;;;;;;;;;55.20;45.20;;;;;;;;5080930;28;8876;-73
2021/04/01 14:58:40;;;;;;;;;58.60;45.20;;;;;;;;5080829;28;8857;-75
2021/04/01 15:01:08;;;;;;;;;56.60;45.60;;;;;;;;5080879;27;8811;-74
2021/04/01 15:03:39;;;;;;;;;54.00;42.80;;;;;;;;5083005;28;8988;-74
2021/04/01 15:06:08;;;;;;;;;56.80;45.80;;;;;;;;5082531;28;9036;-73
2021/04/01 15:08:36;;;;;;;;;57.40;45.00;;;;;;;;5077804;28;8878;-75
2021/04/01 15:11:03;;;;;;;;;61.00;47.00;;;;;;;;5078198;28;8985;-74
2021/04/01 15:13:30;;;;;;;;;63.00;49.75;;;;;;;;5082568;28;8865;-76
2021/04/01 15:15:57;;;;;;;;;60.50;46.75;;;;;;;;5082328;28;8857;-80
2021/04/01 15:18:25;;;;;;;;;66.50;52.00;;;;;;;;5077289;28;8984;-76
2021/04/01 15:20:52;;;;;;;;;71.25;54.25;;;;;;;;5068418;28;8922;-76
2021/04/01 15:23:20;;;;;;;;;68.50;56.75;;;;;;;;5080835;28;8866;-75
2021/04/01 15:25:47;;;;;;;;;69.25;57.00;;;;;;;;5082241;28;8866;-75
2021/04/01 15:28:14;;;;;;;;;66.00;52.75;;;;;;;;5082321;28;8920;-76
2021/04/01 15:30:42;;;;;;;;;66.00;53.25;;;;;;;;5082238;27;8790;-76
2021/04/01 15:33:09;;;;;;;;;62.25;51.00;;;;;;;;5082059;28;8932;-75
2021/04/01 15:35:36;;;;;;;;;66.50;51.25;;;;;;;;5063235;28;8882;-76
2021/04/01 15:38:03;;;;;;;;;62.25;48.25;;;;;;;;5082607;28;9611;-75
2021/04/01 15:40:31;;;;;;;;;58.50;48.00;;;;;;;;5081661;28;8871;-76
2021/04/01 15:42:58;;;;;;;;;61.25;50.00;;;;;;;;5081188;28;8883;-75
2021/04/01 15:45:26;;;;;;;;;61.75;48.25;;;;;;;;5076963;28;8968;-75
2021/04/01 15:47:52;;;;;;;;;61.00;47.75;;;;;;;;5070287;28;8845;-77
2021/04/01 15:50:19;;;;;;;;;54.25;45.25;;;;;;;;5071850;28;8980;-77
2021/04/01 15:52:48;;;;;;;;;57.50;46.25;;;;;;;;5075126;28;8878;-75